Time;durP1;ratioP1;P1;durP2;ratioP2;P2;SDS_P1;SDS_P2;PMS_P1;PMS_P2;Temp;Humidity;BMP_temperature;BMP_pressure;BME280_temperature;BME280_humidity;BME280_pressure;Samples;Min_cycle;Max_cycle;Signal;HPM_P1;HPM_P2
2022/04/16 00:00:22;;;;;;;;;18.75;18.00;;;;;14.92;54.50;102356.78;5075093;27;45359;-77
2022/04/16 00:02:48;;;;;;;;;16.75;16.75;;;;;14.82;53.13;102344.97;5074416;28;45220;-76
2022/04/16 00:05:14;;;;;;;;;20.25;20.25;;;;;14.87;52.43;102359.31;5067838;28;46149;-76
2022/04/16 00:07:40;;;;;;;;;19.00;16.00;;;;;14.73;54.46;102352.63;5063143;28;45823;-76
2022/04/16 00:10:07;;;;;;;;;17.25;17.00;;;;;14.77;54.32;102360.78;5066254;28;45481;-76
2022/04/16 00:12:33;;;;;;;;;19.75;18.25;;;;;14.74;54.83;102357.13;5070553;28;45489;-76
2022/04/16 00:14:59;;;;;;;;;23.00;16.50;;;;;14.69;53.03;102356.06;5073212;28;45354;-76
2022/04/16 00:17:25;;;;;;;;;20.25;17.75;;;;;14.69;54.42;102351.63;5063171;28;45910;-76
2022/04/16 00:19:50;;;;;;;;;18.50;18.25;;;;;14.61;55.10;102347.81;5071627;27;45319;-77
2022/04/16 00:22:16;;;;;;;;;15.50;13.75;;;;;14.36;53.83;102300.84;5076095;28;46538;-77
2022/04/16 00:24:42;;;;;;;;;13.75;12.75;;;;;14.60;55.62;102343.38;5069434;28;45238;-76
2022/04/16 00:27:09;;;;;;;;;18.50;16.75;;;;;14.43;54.10;102333.91;5062416;28;45237;-76
2022/04/16 00:29:38;;;;;;;;;18.50;16.50;;;;;14.53;55.72;102349.31;5072274;27;45334;-76
2022/04/16 00:32:05;;;;;;;;;18.75;17.00;;;;;14.50;55.57;102350.09;5076339;28;47163;-76
2022/04/16 00:34:33;;;;;;;;;20.00;18.50;;;;;14.47;56.47;102354.41;5078107;28;45489;-76
2022/04/16 00:36:59;;;;;;;;;20.00;18.75;;;;;14.31;54.64;102329.03;5066667;28;45248;-76
2022/04/16 00:39:25;;;;;;;;;22.00;19.00;;;;;14.42;56.82;102356.00;5068562;27;45315;-76
2022/04/16 00:41:51;;;;;;;;;21.00;20.00;;;;;14.40;56.12;102349.75;5075173;28;47309;-76
2022/04/16 00:44:19;;;;;;;;;18.00;17.75;;;;;14.01;56.26;102292.59;5069285;27;45464;-77
2022/04/16 00:46:45;;;;;;;;;20.50;17.50;;;;;14.28;54.83;102337.84;5065257;28;46029;-76
2022/04/16 00:49:11;;;;;;;;;15.00;15.00;;;;;14.11;55.99;102307.09;5071107;28;45331;-77
2022/04/16 00:51:36;;;;;;;;;21.25;18.00;;;;;14.05;56.24;102305.13;5080664;27;45484;-76
2022/04/16 00:54:02;;;;;;;;;18.50;15.75;;;;;14.15;56.81;102329.41;5068996;28;45299;-76
2022/04/16 00:56:27;;;;;;;;;22.00;18.50;;;;;13.99;57.41;102298.72;5076283;27;45271;-76
2022/04/16 00:58:53;;;;;;;;;21.50;18.25;;;;;14.12;57.22;102327.53;5068003;27;45405;-76
2022/04/16 01:01:18;;;;;;;;;19.75;18.75;;;;;14.20;55.99;102344.66;5066780;27;45575;-77
2022/04/16 01:03:45;;;;;;;;;21.25;18.75;;;;;13.93;55.18;102299.41;5062364;28;47962;-76
2022/04/16 01:06:14;;;;;;;;;19.25;17.75;;;;;14.04;56.28;102323.72;5073699;28;45230;-76
2022/04/16 01:08:42;;;;;;;;;17.50;17.50;;;;;14.16;56.65;102348.06;5066361;27;45454;-76
2022/04/16 01:11:07;;;;;;;;;17.75;16.75;;;;;14.11;55.91;102341.66;5064399;28;46018;-76
2022/04/16 01:13:32;;;;;;;;;19.75;18.25;;;;;13.79;57.07;102290.06;5076217;27;45196;-75
2022/04/16 01:15:58;;;;;;;;;18.00;16.75;;;;;13.94;57.73;102310.94;5062175;27;45401;-75
2022/04/16 01:18:23;;;;;;;;;12.50;12.50;;;;;13.94;56.49;102316.25;5068577;28;45409;-76
2022/04/16 01:20:48;;;;;;;;;22.50;17.00;;;;;13.96;56.05;102327.84;5063510;27;45317;-77
2022/04/16 01:23:15;;;;;;;;;17.25;17.00;;;;;14.02;57.43;102342.25;5066143;28;46387;-76
2022/04/16 01:25:42;;;;;;;;;21.50;19.50;;;;;13.76;55.07;102301.47;5064354;27;45343;-77
2022/04/16 01:28:09;;;;;;;;;22.75;19.25;;;;;13.75;56.39;102302.34;5070224;28;45354;-76
2022/04/16 01:30:34;;;;;;;;;21.00;18.00;;;;;13.68;56.72;102296.75;5080609;27;46048;-76
2022/04/16 01:33:03;;;;;;;;;20.75;19.75;;;;;13.84;55.60;102329.22;5064832;28;45812;-76
2022/04/16 01:35:29;;;;;;;;;20.75;19.00;;;;;13.76;58.21;102327.16;5071037;28;45201;-76
2022/04/16 01:37:54;;;;;;;;;20.75;20.50;;;;;13.79;58.19;102338.78;5064171;28;45410;-76
2022/04/16 01:40:26;;;;;;;;;24.00;18.75;;;;;13.59;57.27;102308.84;5071453;28;45513;-76
2022/04/16 01:42:56;;;;;;;;;22.75;20.25;;;;;13.82;58.49;102348.63;5062776;28;46269;-76
2022/04/16 01:45:23;;;;;;;;;19.50;18.25;;;;;13.79;57.71;102356.50;5074515;27;45221;-76
2022/04/16 01:47:50;;;;;;;;;21.25;17.75;;;;;13.65;57.15;102337.38;5062698;28;45418;-77
2022/04/16 01:50:16;;;;;;;;;20.00;18.75;;;;;13.69;57.85;102354.34;5076905;28;45290;-76
2022/04/16 01:52:42;;;;;;;;;22.25;21.00;;;;;13.66;58.73;102353.38;5063280;28;45219;-76
2022/04/16 01:55:09;;;;;;;;;19.50;17.50;;;;;13.21;59.46;102275.53;5075219;28;45503;-76
2022/04/16 01:57:35;;;;;;;;;18.50;18.50;;;;;13.60;59.12;102354.91;5070420;28;45303;-76
2022/04/16 02:00:00;;;;;;;;;19.50;19.50;;;;;13.57;57.98;102353.03;5067990;28;46414;-77
2022/04/16 02:02:26;;;;;;;;;18.75;18.75;;;;;13.29;59.63;102318.34;5061506;28;45032;-77
2022/04/16 02:04:51;;;;;;;;;18.25;17.00;;;;;13.34;59.13;102324.72;5066131;28;45500;-76
2022/04/16 02:07:17;;;;;;;;;20.50;18.75;;;;;13.30;59.34;102326.34;5061467;28;45938;-76
2022/04/16 02:09:42;;;;;;;;;22.00;18.75;;;;;13.41;59.53;102355.97;5061925;28;46940;-76
2022/04/16 02:12:08;;;;;;;;;25.00;17.75;;;;;13.33;59.09;102341.50;5061018;28;45899;-76
2022/04/16 02:14:33;;;;;;;;;20.00;19.00;;;;;13.29;57.18;102337.81;5068401;27;45272;-76
2022/04/16 02:16:59;;;;;;;;;24.75;19.75;;;;;13.20;57.60;102326.84;5059792;28;45513;-76
2022/04/16 02:19:26;;;;;;;;;22.50;21.50;;;;;12.97;57.89;102295.00;5069521;27;45440;-76
2022/04/16 02:21:51;;;;;;;;;27.00;20.00;;;;;13.18;60.45;102329.41;5058974;28;45584;-76
2022/04/16 02:24:17;;;;;;;;;22.75;19.50;;;;;13.18;58.29;102347.09;5085474;27;45301;-77
2022/04/16 02:26:46;;;;;;;;;22.75;21.75;;;;;13.18;58.13;102352.41;5074495;28;45232;-77
2022/04/16 02:29:12;;;;;;;;;20.50;20.00;;;;;13.13;58.79;102344.25;5068926;28;45206;-77
2022/04/16 02:31:38;;;;;;;;;26.50;21.50;;;;;12.80;59.41;102296.09;5074444;28;47013;-76
2022/04/16 02:34:05;;;;;;;;;25.75;22.75;;;;;12.91;57.54;102315.06;5066302;28;45436;-76
2022/04/16 02:36:31;;;;;;;;;26.50;22.00;;;;;12.87;60.43;102307.84;5069914;27;45314;-77
2022/04/16 02:38:57;;;;;;;;;20.00;19.00;;;;;13.01;60.13;102333.19;5068515;28;45422;-77
2022/04/16 02:41:23;;;;;;;;;23.50;17.75;;;;;13.06;60.75;102352.84;5068921;28;45356;-77
2022/04/16 02:43:49;;;;;;;;;21.00;19.50;;;;;13.04;60.15;102351.88;5063491;28;45747;-77
2022/04/16 02:48:59;;;;;;;;;22.00;20.00;;;;;12.74;58.98;102314.41;5070232;28;45257;-76
2022/04/16 02:51:24;;;;;;;;;22.00;22.00;;;;;12.88;59.31;102334.47;5067581;27;45495;-76
2022/04/16 02:53:50;;;;;;;;;26.75;24.25;;;;;12.85;60.26;102336.06;5066045;28;45418;-76
2022/04/16 02:56:16;;;;;;;;;20.00;19.50;;;;;12.89;60.89;102344.22;5074682;27;45224;-76
2022/04/16 02:58:41;;;;;;;;;29.00;21.75;;;;;12.86;59.22;102352.06;5067220;28;46218;-76
2022/04/16 03:01:07;;;;;;;;;25.50;23.00;;;;;12.85;59.14;102341.38;5065462;28;46248;-76
2022/04/16 03:03:33;;;;;;;;;28.50;24.00;;;;;12.32;60.74;102262.38;5062113;28;45438;-76
2022/04/16 03:05:58;;;;;;;;;26.25;22.25;;;;;12.67;57.92;102323.88;5080049;28;45449;-77
2022/04/16 03:08:24;;;;;;;;;29.75;28.00;;;;;12.65;60.60;102329.97;5065717;27;45483;-76
2022/04/16 03:10:53;;;;;;;;;28.75;26.25;;;;;12.69;61.03;102331.91;5066765;28;46478;-76
2022/04/16 03:13:19;;;;;;;;;33.75;27.75;;;;;12.73;59.23;102349.75;5073759;28;45335;-76
2022/04/16 03:18:29;;;;;;;;;32.50;24.00;;;;;12.64;59.36;102333.47;5070155;28;45382;-76
2022/04/16 03:20:54;;;;;;;;;31.25;27.25;;;;;12.67;61.10;102353.06;5064495;27;45237;-76
2022/04/16 03:23:20;;;;;;;;;30.00;24.50;;;;;12.64;60.55;102345.00;5068517;28;45422;-76
2022/04/16 03:25:48;;;;;;;;;25.50;21.75;;;;;12.48;61.37;102339.88;5065883;28;45406;-76
2022/04/16 03:28:14;;;;;;;;;30.75;28.50;;;;;12.59;61.29;102357.16;5072027;28;45346;-76
2022/04/16 03:30:40;;;;;;;;;35.50;32.00;;;;;12.42;61.85;102332.59;5066362;27;46374;-76
2022/04/16 03:33:05;;;;;;;;;38.50;29.00;;;;;12.50;60.83;102343.53;5067590;28;45367;-76
2022/04/16 03:35:31;;;;;;;;;33.75;29.00;;;;;12.37;61.39;102323.53;5072819;28;45457;-76
2022/04/16 03:37:56;;;;;;;;;34.50;29.75;;;;;12.53;61.13;102355.16;5076323;27;45320;-76
2022/04/16 03:40:24;;;;;;;;;34.25;30.75;;;;;12.26;62.00;102301.88;5073419;28;46359;-77
2022/04/16 03:42:58;;;;;;;;;31.75;29.25;;;;;12.39;60.63;102339.53;5064379;28;45301;-76
2022/04/16 03:45:27;;;;;;;;;29.00;25.00;;;;;12.44;61.57;102351.22;5076906;28;45266;-77
2022/04/16 03:47:54;;;;;;;;;32.50;30.75;;;;;12.37;62.13;102336.78;5073722;28;46084;-77
2022/04/16 03:50:21;;;;;;;;;30.50;27.25;;;;;12.40;61.80;102336.00;5077496;28;48418;-76
2022/04/16 03:52:48;;;;;;;;;34.75;31.00;;;;;12.37;61.20;102341.19;5065037;28;45332;-77
2022/04/16 04:00:48;;;;;;;;;35.50;29.00;;;;;12.08;61.26;102309.97;5068663;28;45802;-76
2022/04/16 04:03:15;;;;;;;;;32.75;29.75;;;;;11.92;62.30;102286.31;5063248;28;45496;-76
2022/04/16 04:05:41;;;;;;;;;36.75;30.25;;;;;12.15;61.40;102331.44;5070199;28;45356;-76
2022/04/16 04:08:09;;;;;;;;;29.25;27.00;;;;;12.19;60.50;102341.34;5063472;28;45507;-77
2022/04/16 04:10:35;;;;;;;;;34.25;29.00;;;;;12.07;61.12;102325.78;5066335;28;46269;-77
2022/04/16 04:13:01;;;;;;;;;35.00;29.25;;;;;12.09;60.94;102327.66;5065236;28;45442;-76
2022/04/16 04:15:27;;;;;;;;;31.50;28.50;;;;;11.91;61.88;102297.75;5067731;27;45368;-76
2022/04/16 04:17:53;;;;;;;;;37.50;31.50;;;;;12.08;63.29;102344.44;5071255;28;45940;-77
2022/04/16 04:20:19;;;;;;;;;30.25;27.00;;;;;11.75;62.11;102292.59;5069160;27;45443;-76
2022/04/16 04:22:44;;;;;;;;;29.50;27.00;;;;;12.02;61.25;102349.47;5062736;28;45431;-76
2022/04/16 04:25:09;;;;;;;;;31.00;28.00;;;;;11.99;62.28;102346.69;5069915;28;45347;-76
2022/04/16 04:27:35;;;;;;;;;33.25;29.75;;;;;11.47;62.63;102258.69;5073417;28;46007;-76
2022/04/16 04:30:03;;;;;;;;;35.00;29.25;;;;;11.95;62.91;102362.38;5077406;28;47141;-76
2022/04/16 04:32:28;;;;;;;;;34.50;32.50;;;;;11.83;62.17;102339.78;5075821;28;45739;-76
2022/04/16 04:34:54;;;;;;;;;36.50;31.50;;;;;11.75;62.69;102335.88;5072086;27;45207;-76
2022/04/16 04:37:19;;;;;;;;;32.25;28.50;;;;;11.68;62.36;102324.94;5067658;27;45315;-76
2022/04/16 04:39:45;;;;;;;;;28.25;28.25;;;;;11.68;62.72;102331.16;5071736;27;46286;-76
2022/04/16 04:42:10;;;;;;;;;37.75;29.75;;;;;11.80;62.78;102358.19;5066227;27;45485;-76
2022/04/16 04:44:36;;;;;;;;;41.25;33.75;;;;;11.70;62.98;102345.34;5073590;27;45304;-76
2022/04/16 04:47:01;;;;;;;;;36.00;32.25;;;;;11.40;63.31;102299.91;5064912;27;45379;-76
2022/04/16 04:49:27;;;;;;;;;41.00;31.75;;;;;11.70;62.97;102358.59;5075810;28;45290;-76
2022/04/16 04:51:52;;;;;;;;;39.50;32.75;;;;;11.67;62.83;102357.56;5067542;28;45331;-76
2022/04/16 04:54:18;;;;;;;;;37.75;30.75;;;;;11.64;63.78;102359.22;5070228;28;45380;-76
2022/04/16 04:56:43;;;;;;;;;37.50;33.00;;;;;11.53;63.47;102347.25;5081592;27;46267;-76
2022/04/16 04:59:08;;;;;;;;;40.50;33.75;;;;;11.49;63.01;102342.66;5064080;28;47180;-78
2022/04/16 05:01:34;;;;;;;;;42.75;34.50;;;;;11.54;63.92;102359.66;5073449;28;45619;-78
2022/04/16 05:04:00;;;;;;;;;44.00;34.50;;;;;11.52;63.64;102374.56;5074423;28;45375;-79
2022/04/16 05:06:25;;;;;;;;;36.25;33.25;;;;;11.37;62.77;102340.38;5069262;27;45241;-81
2022/04/16 05:08:51;;;;;;;;;42.00;35.00;;;;;11.46;64.44;102361.06;5067540;28;45482;-82
2022/04/16 05:11:17;;;;;;;;;32.50;28.25;;;;;11.28;61.23;102329.34;5067439;28;45249;-79
2022/04/16 05:13:42;;;;;;;;;46.50;35.75;;;;;11.33;63.75;102346.34;5070467;28;45224;-78
2022/04/16 05:16:08;;;;;;;;;46.75;35.75;;;;;11.37;64.53;102368.56;5060721;28;45593;-77
2022/04/16 05:18:33;;;;;;;;;44.50;36.50;;;;;11.43;64.63;102382.09;5070965;28;46148;-80
2022/04/16 05:20:59;;;;;;;;;41.75;35.00;;;;;11.43;64.46;102385.66;5065624;27;45284;-79
2022/04/16 05:23:24;;;;;;;;;36.75;34.00;;;;;11.18;64.25;102351.84;5066151;28;45688;-80
2022/04/16 05:25:50;;;;;;;;;44.25;36.75;;;;;11.30;64.78;102370.03;5062190;28;45272;-79
2022/04/16 05:28:16;;;;;;;;;40.25;34.75;;;;;11.06;64.94;102331.81;5066058;28;45336;-81
2022/04/16 05:30:55;;;;;;;;;40.00;35.00;;;;;11.43;63.80;102404.19;5070932;28;45247;-81
2022/04/16 05:36:06;;;;;;;;;44.50;36.25;;;;;11.28;64.83;102371.69;5064359;28;45514;-78
2022/04/16 05:38:31;;;;;;;;;43.50;35.25;;;;;11.43;64.26;102405.94;5065744;28;46298;-78
2022/04/16 05:40:57;;;;;;;;;47.25;34.25;;;;;11.35;64.06;102392.34;5070574;28;45755;-78
2022/04/16 05:43:22;;;;;;;;;39.00;34.75;;;;;11.24;63.59;102372.41;5065688;28;45439;-79
2022/04/16 05:45:48;;;;;;;;;43.50;35.25;;;;;11.05;64.95;102352.09;5070123;27;45205;-77
2022/04/16 05:48:13;;;;;;;;;36.75;34.00;;;;;11.42;63.25;102412.94;5063350;28;47512;-78
2022/04/16 05:50:39;;;;;;;;;42.25;36.50;;;;;11.42;62.91;102412.06;5073643;27;45355;-78
2022/04/16 05:53:06;;;;;;;;;42.75;36.00;;;;;11.42;63.88;102420.00;5065463;28;45508;-78
2022/04/16 05:55:32;;;;;;;;;37.75;35.25;;;;;11.42;63.90;102420.00;5069160;27;45568;-77
2022/04/16 05:57:58;;;;;;;;;45.00;36.50;;;;;11.34;64.18;102409.06;5071860;28;45520;-77
2022/04/16 06:00:23;;;;;;;;;42.00;37.25;;;;;11.38;62.53;102420.69;5066395;27;45355;-79
2022/04/16 06:02:50;;;;;;;;;48.00;39.25;;;;;11.37;64.66;102432.09;5060871;28;45331;-78
2022/04/16 06:05:16;;;;;;;;;44.50;39.25;;;;;11.25;64.76;102413.91;5070675;27;45941;-79
2022/04/16 06:07:41;;;;;;;;;49.25;38.25;;;;;11.11;62.52;102386.78;5072918;27;45325;-78
2022/04/16 06:10:07;;;;;;;;;32.75;31.50;;;;;11.38;62.14;102426.00;5064238;28;45655;-78
2022/04/16 06:12:33;;;;;;;;;36.25;33.50;;;;;11.32;62.13;102409.81;5061408;28;45241;-77
2022/04/16 06:14:59;;;;;;;;;44.00;36.25;;;;;11.41;63.59;102424.38;5067517;28;45253;-78
2022/04/16 06:17:24;;;;;;;;;42.00;36.00;;;;;11.41;63.40;102419.09;5061055;28;45458;-76
2022/04/16 06:19:50;;;;;;;;;33.50;31.25;;;;;11.22;64.05;102381.09;5067074;28;45447;-76
2022/04/16 06:22:15;;;;;;;;;41.00;36.25;;;;;11.35;63.70;102400.28;5060554;28;45280;-78
2022/04/16 06:24:43;;;;;;;;;46.25;38.00;;;;;11.56;63.40;102429.47;5070618;27;45299;-77
2022/04/16 06:27:09;;;;;;;;;47.50;37.50;;;;;11.68;63.29;102436.19;5059415;28;46472;-75
2022/04/16 06:29:34;;;;;;;;;47.00;37.25;;;;;11.60;62.73;102397.03;5066689;28;45330;-75
2022/04/16 06:32:00;;;;;;;;;46.75;37.50;;;;;11.91;62.32;102432.91;5058560;28;45349;-75
2022/04/16 06:34:27;;;;;;;;;45.75;38.00;;;;;12.05;63.03;102436.16;5067513;28;45657;-76
2022/04/16 06:36:52;;;;;;;;;48.00;38.00;;;;;11.71;62.96;102359.53;5064960;27;45549;-76
2022/04/16 06:39:17;;;;;;;;;42.25;36.00;;;;;12.29;62.21;102441.63;5086409;27;45407;-78
2022/04/16 06:41:43;;;;;;;;;38.50;34.75;;;;;12.26;62.21;102407.91;5066514;27;45361;-75
2022/04/16 06:44:08;;;;;;;;;42.50;35.00;;;;;12.51;61.03;102425.78;5066688;28;47131;-77
2022/04/16 06:46:34;;;;;;;;;45.75;36.25;;;;;12.46;60.46;102400.84;5066243;27;46673;-76
2022/04/16 06:48:59;;;;;;;;;48.00;37.75;;;;;12.64;60.99;102415.72;5069302;28;45236;-76
2022/04/16 06:51:24;;;;;;;;;33.25;31.00;;;;;12.71;59.88;102402.75;5067655;27;45308;-76
2022/04/16 06:53:50;;;;;;;;;39.00;33.75;;;;;13.05;59.79;102449.28;5065989;28;45338;-75
2022/04/16 06:56:15;;;;;;;;;45.25;38.75;;;;;13.23;59.70;102432.25;5074004;28;45251;-75
2022/04/16 06:58:40;;;;;;;;;40.75;31.00;;;;;12.96;59.50;102370.16;5063401;28;45265;-74
2022/04/16 07:01:06;;;;;;;;;42.50;35.25;;;;;13.22;58.85;102391.53;5065201;28;45328;-75
2022/04/16 07:03:31;;;;;;;;;40.75;33.25;;;;;13.38;58.93;102385.97;5061443;28;47057;-75
2022/04/16 07:05:56;;;;;;;;;52.25;41.25;;;;;13.61;58.71;102410.78;5064915;28;46404;-76
2022/04/16 07:08:22;;;;;;;;;40.25;34.00;;;;;13.92;58.13;102430.53;5063006;28;45484;-75
2022/04/16 07:10:47;;;;;;;;;45.00;36.75;;;;;14.09;57.70;102429.38;5063398;27;45389;-76
2022/04/16 07:13:12;;;;;;;;;40.25;34.00;;;;;13.71;56.71;102342.91;5065692;28;45735;-76
2022/04/16 07:15:38;;;;;;;;;40.75;34.75;;;;;14.38;57.05;102429.50;5065482;28;45395;-78
2022/04/16 07:18:04;;;;;;;;;47.00;37.00;;;;;14.39;56.21;102415.34;5065058;28;45327;-79
2022/04/16 07:20:30;;;;;;;;;46.50;37.50;;;;;14.55;56.60;102417.72;5066915;27;44880;-80
2022/04/16 07:22:55;;;;;;;;;44.75;34.25;;;;;14.68;56.40;102428.78;5066040;28;46195;-76
2022/04/16 07:25:21;;;;;;;;;41.00;33.50;;;;;14.75;56.13;102417.47;5058262;28;45834;-75
2022/04/16 07:27:47;;;;;;;;;44.75;37.00;;;;;14.99;54.82;102439.59;5059775;28;45331;-75
2022/04/16 07:30:13;;;;;;;;;40.50;33.50;;;;;14.96;55.10;102420.84;5066180;28;45434;-75
2022/04/16 07:32:39;;;;;;;;;39.75;35.25;;;;;15.21;55.07;102432.28;5070182;28;45299;-75
2022/04/16 07:35:08;;;;;;;;;48.25;36.25;;;;;15.19;54.82;102412.69;5074627;28;45326;-75
2022/04/16 07:37:33;;;;;;;;;33.50;30.50;;;;;15.09;54.50;102374.19;5072662;28;45490;-75
2022/04/16 07:39:58;;;;;;;;;43.50;34.50;;;;;15.30;53.88;102376.63;5067944;27;45955;-76
2022/04/16 07:42:28;;;;;;;;;39.00;33.25;;;;;15.76;54.35;102433.97;5060696;27;45474;-75
2022/04/16 07:44:54;;;;;;;;;39.50;34.50;;;;;15.74;53.77;102394.78;5074046;28;45382;-74
2022/04/16 07:47:19;;;;;;;;;41.25;35.00;;;;;16.06;53.12;102420.63;5076465;27;45616;-76
2022/04/16 07:49:45;;;;;;;;;37.50;32.50;;;;;16.23;53.15;102426.41;5068550;28;45338;-76
2022/04/16 07:52:10;;;;;;;;;44.00;35.00;;;;;16.32;52.30;102424.00;5075076;28;45505;-76
2022/04/16 07:54:37;;;;;;;;;39.00;34.50;;;;;16.39;51.50;102413.50;5080223;27;47110;-75
2022/04/16 07:57:06;;;;;;;;;45.00;36.50;;;;;16.59;52.15;102438.94;5070212;28;45772;-75
2022/04/16 07:59:32;;;;;;;;;38.75;33.25;;;;;16.63;50.97;102415.88;5067331;28;45386;-76
2022/04/16 08:01:57;;;;;;;;;36.75;32.75;;;;;16.77;52.67;102415.38;5061009;28;47196;-76
2022/04/16 08:04:23;;;;;;;;;37.50;33.75;;;;;16.87;50.96;102440.56;5063994;28;47334;-77
2022/04/16 08:06:48;;;;;;;;;37.25;33.25;;;;;16.89;51.45;102435.28;5060669;28;45229;-79
2022/04/16 08:09:14;;;;;;;;;37.00;31.75;;;;;17.08;50.95;102436.59;5076581;28;45426;-76
2022/04/16 08:11:40;;;;;;;;;34.00;31.00;;;;;17.18;51.52;102436.84;5060724;28;45209;-75
2022/04/16 08:14:06;;;;;;;;;37.00;33.75;;;;;16.96;50.00;102411.41;5071945;28;46277;-75
2022/04/16 08:16:32;;;;;;;;;37.75;34.00;;;;;17.05;49.44;102413.38;5060790;28;45263;-76
2022/04/16 08:18:57;;;;;;;;;41.00;33.75;;;;;17.36;49.02;102428.34;5071848;28;45257;-76
2022/04/16 08:21:25;;;;;;;;;38.50;32.75;;;;;17.63;48.95;102435.19;5059308;28;47007;-76
2022/04/16 08:26:49;;;;;;;;;37.50;33.25;;;;;17.56;48.09;102409.16;5069525;28;45435;-77
2022/04/16 08:29:15;;;;;;;;;38.25;32.00;;;;;17.49;48.88;102376.06;5069727;28;45324;-78
2022/04/16 08:31:40;;;;;;;;;35.67;33.00;;;;;18.00;48.18;102438.66;5071575;27;45161;-76
2022/04/16 08:34:05;;;;;;;;;40.75;33.50;;;;;18.04;47.46;102424.47;5066502;28;45298;-76
2022/04/16 08:36:31;;;;;;;;;26.50;22.75;;;;;18.21;47.70;102425.69;5069541;28;45268;-75
2022/04/16 08:38:56;;;;;;;;;45.50;35.75;;;;;18.62;47.86;102464.81;5069161;28;45425;-75
2022/04/16 08:41:25;;;;;;;;;32.00;29.67;;;;;18.73;47.39;102439.09;5086702;27;45925;-75
2022/04/16 08:43:52;;;;;;;;;34.50;32.00;;;;;18.56;46.24;102377.22;5065638;28;45311;-75
2022/04/16 08:46:17;;;;;;;;;41.67;35.67;;;;;19.01;45.76;102424.41;5069782;28;45458;-75
2022/04/16 08:48:43;;;;;;;;;34.33;31.00;;;;;19.34;45.50;102449.94;5067943;28;45430;-74
2022/04/16 08:51:09;;;;;;;;;41.00;33.67;;;;;19.50;44.99;102438.56;5070576;28;45421;-74
2022/04/16 08:53:35;;;;;;;;;35.75;32.25;;;;;19.83;44.35;102453.34;5067217;28;45994;-74
2022/04/16 08:56:00;;;;;;;;;36.00;32.00;;;;;19.75;45.94;102409.41;5072738;28;45295;-74
2022/04/16 08:58:25;;;;;;;;;39.33;32.00;;;;;19.94;44.23;102419.47;5068281;28;45418;-74
2022/04/16 09:00:51;;;;;;;;;44.67;34.67;;;;;20.28;45.60;102441.31;5064566;28;47370;-74
2022/04/16 09:03:16;;;;;;;;;41.00;34.67;;;;;20.39;42.99;102452.16;5065962;28;46078;-74
2022/04/16 09:05:42;;;;;;;;;31.00;30.00;;;;;20.44;44.84;102423.53;5064462;28;45430;-74
2022/04/16 09:08:07;;;;;;;;;36.33;32.67;;;;;20.56;43.36;102427.28;5064323;28;45292;-74
2022/04/16 09:10:36;;;;;;;;;34.67;31.33;;;;;20.84;42.20;102449.03;5082466;27;45924;-74
2022/04/16 09:13:04;;;;;;;;;34.33;31.00;;;;;21.10;43.07;102464.47;5063344;28;45386;-74
2022/04/16 09:15:31;;;;;;;;;30.33;26.67;;;;;21.15;40.98;102446.59;5067264;27;45405;-74
2022/04/16 09:18:06;;;;;;;;;34.67;30.67;;;;;21.41;42.66;102460.22;5071908;28;45383;-76
2022/04/16 09:20:37;;;;;;;;;32.33;29.00;;;;;21.47;42.24;102424.38;5066943;28;46112;-74
2022/04/16 09:23:18;;;;;;;;;33.67;30.67;;;;;21.78;42.58;102444.25;5072634;28;45604;-74
2022/04/16 09:25:43;;;;;;;;;43.33;34.67;;;;;21.69;41.70;102420.91;5065350;28;45343;-74
2022/04/16 09:28:09;;;;;;;;;31.33;30.00;;;;;21.91;41.20;102448.81;5067127;28;45284;-75
2022/04/16 09:30:37;;;;;;;;;37.00;32.33;;;;;21.92;40.17;102449.69;5073433;28;45540;-75
2022/04/16 09:33:03;;;;;;;;;34.33;30.00;;;;;21.93;40.86;102446.09;5061758;28;47358;-74
2022/04/16 09:35:35;;;;;;;;;33.00;29.67;;;;;22.06;40.77;102445.25;5072042;28;45387;-75
2022/04/16 09:38:02;;;;;;;;;65.75;51.25;;;;;22.20;40.76;102419.28;5063045;28;45339;-74
2022/04/16 09:40:30;;;;;;;;;39.67;33.67;;;;;22.20;39.98;102419.28;5075434;27;45589;-74
2022/04/16 09:42:59;;;;;;;;;40.00;32.33;;;;;22.24;39.18;102398.66;5062137;28;46066;-74
2022/04/16 09:45:24;;;;;;;;;29.67;29.00;;;;;22.62;39.26;102438.22;5073365;27;45410;-74
2022/04/16 09:47:52;;;;;;;;;33.00;29.67;;;;;22.69;39.68;102440.91;5061879;28;45453;-75
2022/04/16 09:50:19;;;;;;;;;38.00;32.67;;;;;22.79;39.45;102406.75;5075715;28;47027;-74
2022/04/16 09:52:50;;;;;;;;;32.00;29.33;;;;;23.19;39.55;102422.91;5064065;28;45399;-75
2022/04/16 09:55:16;;;;;;;;;28.33;24.33;;;;;23.19;37.38;102414.81;5070207;28;45402;-74
2022/04/16 09:57:41;;;;;;;;;44.33;36.00;;;;;23.39;38.48;102431.88;5074011;28;45351;-75
2022/04/16 10:00:07;;;;;;;;;32.33;29.67;;;;;23.53;39.07;102407.53;5067502;27;45448;-74
2022/04/16 10:02:34;;;;;;;;;32.00;30.00;;;;;23.83;38.36;102413.72;5063006;28;45571;-74
2022/04/16 10:05:00;;;;;;;;;26.33;24.33;;;;;23.86;38.07;102392.09;5066545;27;45262;-78
2022/04/16 10:07:25;;;;;;;;;26.67;24.67;;;;;24.09;36.36;102386.56;5059760;28;45520;-78
2022/04/16 10:09:53;;;;;;;;;31.67;27.67;;;;;24.52;38.12;102411.50;5064344;28;45267;-78
2022/04/16 10:15:13;;;;;;;;;19.00;16.00;;;;;24.67;36.76;102425.81;5067923;28;45495;-78
2022/04/16 10:17:49;;;;;;;;;22.67;20.00;;;;;24.75;34.46;102422.13;5061095;28;45470;-78
2022/04/16 10:20:23;;;;;;;;;24.67;23.33;;;;;24.72;35.01;102422.16;5061351;28;45516;-78
2022/04/16 10:23:01;;;;;;;;;24.67;22.00;;;;;24.31;33.63;102427.84;5070963;28;46157;-79
2022/04/16 10:25:40;;;;;;;;;18.33;16.00;;;;;24.11;34.66;102403.66;5058794;28;45352;-78
2022/04/16 10:28:08;;;;;;;;;21.00;18.33;;;;;24.04;32.46;102410.91;5062622;28;45394;-74
2022/04/16 10:30:51;;;;;;;;;17.00;16.33;;;;;24.12;32.65;102424.38;5065492;28;45381;-76
2022/04/16 10:33:23;;;;;;;;;21.67;17.33;;;;;24.25;33.52;102417.97;5068522;28;45449;-75
2022/04/16 10:36:03;;;;;;;;;20.00;17.00;;;;;24.49;34.73;102425.06;5075755;28;45291;-75
2022/04/16 10:38:34;;;;;;;;;18.00;16.33;;;;;24.71;35.17;102414.97;5063517;28;45464;-75
2022/04/16 10:41:12;;;;;;;;;20.33;17.67;;;;;24.78;34.50;102415.78;5068990;28;46909;-75
2022/04/16 10:43:38;;;;;;;;;19.00;18.33;;;;;24.78;33.05;102397.75;5066333;28;45496;-76
2022/04/16 10:46:08;;;;;;;;;48.00;36.00;;;;;24.82;34.80;102401.34;5069175;28;45335;-76
2022/04/16 10:48:35;;;;;;;;;26.00;23.00;;;;;25.04;33.55;102403.81;5066410;28;45263;-79
2022/04/16 10:51:00;;;;;;;;;17.00;14.33;;;;;24.93;32.54;102342.63;5068297;28;45511;-76
2022/04/16 10:53:32;;;;;;;;;20.00;17.00;;;;;25.25;31.28;102392.81;5063728;28;45684;-78
2022/04/16 10:56:13;;;;;;;;;21.00;18.33;;;;;25.28;32.76;102386.47;5070297;28;45430;-81
2022/04/16 10:58:47;;;;;;;;;12.00;10.67;;;;;25.22;31.24;102404.56;5069018;27;45487;-77
2022/04/16 11:01:23;;;;;;;;;14.25;11.00;;;;;25.02;30.43;102363.25;5064931;28;45228;-78
2022/04/16 11:03:49;;;;;;;;;17.33;14.33;;;;;25.23;31.38;102406.38;5066742;28;48455;-80
2022/04/16 11:06:16;;;;;;;;;18.50;15.50;;;;;25.08;31.57;102383.94;5059829;27;45291;-78
2022/04/16 11:08:45;;;;;;;;;17.67;15.00;;;;;25.34;30.52;102413.44;5067815;28;45568;-79
2022/04/16 11:11:13;;;;;;;;;13.50;10.50;;;;;25.39;30.17;102409.78;5060200;27;45476;-80
2022/04/16 11:13:39;;;;;;;;;12.75;12.75;;;;;25.44;28.53;102401.63;5066665;28;46265;-78
2022/04/16 11:16:07;;;;;;;;;9.75;9.75;;;;;25.41;27.54;102396.25;5060917;27;45299;-79
2022/04/16 11:18:47;;;;;;;;;12.75;12.75;;;;;25.61;31.32;102393.28;5060878;28;45459;-78
2022/04/16 11:21:20;;;;;;;;;13.25;13.25;;;;;25.80;29.89;102402.97;5058346;28;46128;-79
2022/04/16 11:23:53;;;;;;;;;13.00;12.00;;;;;25.87;29.45;102374.88;5076279;27;45661;-79
2022/04/16 11:34:44;;;;;;;;;15.25;12.25;;;;;26.55;28.49;102392.81;5070533;28;45347;-78